Time;durP1;ratioP1;P1;durP2;ratioP2;P2;SDS_P1;SDS_P2;PMS_P1;PMS_P2;Temp;Humidity;BMP_temperature;BMP_pressure;BME280_temperature;BME280_humidity;BME280_pressure;Samples;Min_cycle;Max_cycle;Signal;HPM_P1;HPM_P2
2022/09/10 00:01:13;;;;;;;24.42;13.13;;;;;;;21.05;98.91;94629.22;5069706;28;20288;-76
2022/09/10 00:03:41;;;;;;;24.05;13.20;;;;;;;20.98;99.18;94632.19;5070688;28;20197;-77
2022/09/10 00:06:09;;;;;;;22.40;14.27;;;;;;;20.92;99.85;94633.34;5069382;28;20193;-77
2022/09/10 00:08:38;;;;;;;20.27;13.05;;;;;;;20.94;100.00;94628.56;5069905;28;20291;-77
2022/09/10 00:11:08;;;;;;;19.20;12.90;;;;;;;20.92;100.00;94634.09;5069541;28;20865;-77
2022/09/10 00:13:38;;;;;;;22.77;13.02;;;;;;;20.92;100.00;94636.75;5069632;28;20205;-79
2022/09/10 00:16:07;;;;;;;21.00;12.88;;;;;;;20.91;100.00;94637.06;5071277;28;20252;-77
2022/09/10 00:18:34;;;;;;;24.48;12.45;;;;;;;20.97;100.00;94633.28;5073671;28;20222;-77
2022/09/10 00:21:07;;;;;;;24.65;12.95;;;;;;;20.98;100.00;94642.75;5073919;28;20228;-77
2022/09/10 00:23:34;;;;;;;20.58;12.60;;;;;;;21.02;100.00;94649.06;5046996;28;20206;-76
2022/09/10 00:26:10;;;;;;;26.92;12.80;;;;;;;21.03;100.00;94645.38;5052213;28;20586;-76
2022/09/10 00:28:37;;;;;;;22.17;12.18;;;;;;;21.02;100.00;94645.63;5053442;28;20649;-76
2022/09/10 00:31:04;;;;;;;20.90;11.65;;;;;;;21.05;100.00;94639.78;5053665;28;20568;-76
2022/09/10 00:33:31;;;;;;;21.08;11.77;;;;;;;21.01;100.00;94638.78;5053926;28;20569;-76
2022/09/10 00:35:57;;;;;;;18.35;12.77;;;;;;;21.03;100.00;94634.78;5053243;28;20297;-74
2022/09/10 00:38:26;;;;;;;22.38;12.25;;;;;;;21.05;100.00;94642.44;5053486;28;20667;-75
2022/09/10 00:40:53;;;;;;;24.10;12.48;;;;;;;21.03;100.00;94637.44;5052530;28;20202;-76
2022/09/10 00:43:22;;;;;;;20.83;12.82;;;;;;;21.00;100.00;94643.28;5052764;28;20213;-76
2022/09/10 00:45:52;;;;;;;19.40;11.80;;;;;;;21.01;100.00;94636.91;5053243;28;20297;-76
2022/09/10 00:48:23;;;;;;;27.13;16.23;;;;;;;21.04;100.00;94646.16;5053838;28;20205;-76
2022/09/10 00:50:51;;;;;;;23.13;14.70;;;;;;;20.88;100.00;94632.31;5053484;28;20202;-76
2022/09/10 00:53:21;;;;;;;21.45;14.25;;;;;;;20.88;100.00;94634.97;5053165;28;20229;-78
2022/09/10 00:55:52;;;;;;;27.58;15.15;;;;;;;20.90;100.00;94635.47;5053430;28;20197;-79
2022/09/10 00:58:22;;;;;;;26.40;14.38;;;;;;;20.93;100.00;94635.69;5053801;28;20201;-78
2022/09/10 01:00:50;;;;;;;23.83;16.83;;;;;;;20.97;100.00;94628.00;5053245;28;20695;-79
2022/09/10 01:03:18;;;;;;;29.40;14.98;;;;;;;20.95;100.00;94633.56;5053373;28;20221;-78
2022/09/10 01:05:46;;;;;;;23.52;15.20;;;;;;;20.95;100.00;94627.50;5053124;28;20209;-79
2022/09/10 01:08:14;;;;;;;21.92;14.45;;;;;;;20.98;99.91;94632.19;5053043;28;20592;-78
2022/09/10 01:10:54;;;;;;;26.75;14.00;;;;;;;21.00;100.00;94624.78;5052356;28;20288;-78
2022/09/10 01:13:34;;;;;;;21.30;14.35;;;;;;;20.98;100.00;94620.84;5052840;28;20198;-78
2022/09/10 01:16:11;;;;;;;24.38;12.98;;;;;;;20.95;100.00;94628.25;5053599;28;20232;-78
2022/09/10 01:18:48;;;;;;;28.80;12.55;;;;;;;20.88;100.00;94619.91;5053398;28;20213;-78
2022/09/10 01:21:23;;;;;;;25.23;12.93;;;;;;;20.88;100.00;94613.84;5054219;28;20197;-79
2022/09/10 01:24:31;;;;;;;21.50;13.85;;;;;;;20.86;100.00;94611.50;5053014;28;20205;-78
2022/09/10 01:27:34;;;;;;;21.45;12.77;;;;;;;20.93;100.00;94609.28;5046642;28;20288;-78
2022/09/10 01:30:07;;;;;;;20.23;11.57;;;;;;;20.98;100.00;94600.47;5047187;28;20267;-78
2022/09/10 01:32:44;;;;;;;16.25;11.38;;;;;;;21.00;100.00;94595.72;5053474;28;20664;-78
2022/09/10 01:35:16;;;;;;;17.65;12.00;;;;;;;20.98;100.00;94597.84;5053526;28;20194;-77
2022/09/10 01:37:48;;;;;;;22.58;11.35;;;;;;;21.01;100.00;94599.16;5046744;28;20259;-77
2022/09/10 01:40:17;;;;;;;14.95;11.38;;;;;;;20.98;100.00;94610.28;5052791;28;20225;-78
2022/09/10 01:42:45;;;;;;;19.83;11.15;;;;;;;20.99;100.00;94598.63;5052991;28;20217;-77
2022/09/10 01:45:15;;;;;;;17.85;11.15;;;;;;;21.03;100.00;94599.66;5052933;28;20726;-78
2022/09/10 01:48:10;;;;;;;14.70;10.52;;;;;;;21.03;100.00;94597.78;5052803;28;20654;-78
2022/09/10 01:50:46;;;;;;;22.33;12.20;;;;;;;20.97;100.00;94598.13;5053332;28;20253;-78
2022/09/10 01:53:29;;;;;;;17.67;11.50;;;;;;;20.90;100.00;94609.03;5053325;28;20197;-78
2022/09/10 01:56:03;;;;;;;21.38;11.18;;;;;;;20.92;100.00;94612.97;5053117;28;20212;-78
2022/09/10 01:58:34;;;;;;;22.38;11.52;;;;;;;20.91;100.00;94626.47;5051948;28;20285;-78
2022/09/10 02:01:10;;;;;;;16.38;10.88;;;;;;;20.92;100.00;94622.78;5051825;28;20201;-78
2022/09/10 02:03:40;;;;;;;20.15;11.18;;;;;;;20.97;100.00;94633.28;5052609;28;20229;-78
2022/09/10 02:06:11;;;;;;;17.48;11.75;;;;;;;21.00;100.00;94630.06;5048712;28;20203;-77
2022/09/10 02:08:41;;;;;;;26.08;13.05;;;;;;;20.94;100.00;94625.91;5050349;28;20206;-78
2022/09/10 02:11:11;;;;;;;23.77;12.73;;;;;;;20.90;100.00;94622.25;5052790;28;20202;-78
2022/09/10 02:13:38;;;;;;;24.92;12.80;;;;;;;20.90;100.00;94622.25;5051735;28;20202;-78
2022/09/10 02:16:11;;;;;;;20.17;12.98;;;;;;;20.78;100.00;94603.38;5051864;28;20230;-77
2022/09/10 02:18:38;;;;;;;22.35;12.77;;;;;;;20.87;100.00;94609.59;5052348;28;20198;-78
2022/09/10 02:21:06;;;;;;;19.15;12.48;;;;;;;20.93;100.00;94627.78;5052362;28;20289;-77
2022/09/10 02:23:39;;;;;;;23.15;12.27;;;;;;;20.93;100.00;94619.84;5051336;28;20201;-78
2022/09/10 02:26:06;;;;;;;21.48;11.88;;;;;;;20.81;100.00;94614.16;5052399;28;20202;-78
2022/09/10 02:28:33;;;;;;;18.83;12.30;;;;;;;20.87;100.00;94615.69;5051905;28;20198;-78
2022/09/10 02:31:00;;;;;;;18.05;12.23;;;;;;;20.84;100.00;94618.88;5050881;28;20229;-78
2022/09/10 02:33:29;;;;;;;19.88;12.25;;;;;;;20.83;100.00;94619.19;5052007;28;20579;-78
2022/09/10 02:35:56;;;;;;;18.27;11.65;;;;;;;20.78;100.00;94619.22;5051745;28;20205;-78
2022/09/10 02:38:23;;;;;;;21.40;11.80;;;;;;;20.72;100.00;94618.50;5051384;28;20264;-76
2022/09/10 02:40:50;;;;;;;16.95;11.63;;;;;;;20.71;100.00;94624.06;5052105;28;20225;-76
2022/09/10 02:43:17;;;;;;;22.42;11.50;;;;;;;20.71;100.00;94626.72;5051260;28;20206;-77
2022/09/10 02:45:44;;;;;;;18.63;11.30;;;;;;;20.74;100.00;94621.66;5051579;28;20210;-76
2022/09/10 02:48:11;;;;;;;19.15;11.75;;;;;;;20.67;100.00;94621.19;5051275;28;20202;-77
2022/09/10 02:50:39;;;;;;;23.75;11.70;;;;;;;20.62;100.00;94618.63;5050605;28;20204;-76
2022/09/10 02:53:06;;;;;;;18.88;11.93;;;;;;;20.60;100.00;94619.97;5052186;28;20225;-76
2022/09/10 02:55:33;;;;;;;16.80;10.95;;;;;;;20.58;100.00;94628.16;5051775;28;20292;-76
2022/09/10 02:58:00;;;;;;;19.48;12.15;;;;;;;20.51;100.00;94633.00;5051400;28;20198;-77
2022/09/10 03:00:27;;;;;;;20.77;11.88;;;;;;;20.49;100.00;94627.19;5050727;28;20232;-77
2022/09/10 03:02:55;;;;;;;18.95;11.98;;;;;;;20.50;100.00;94625.34;5049123;28;20206;-76
2022/09/10 03:05:22;;;;;;;18.00;11.80;;;;;;;20.53;100.00;94635.34;5051014;28;20206;-77
2022/09/10 03:07:50;;;;;;;16.42;11.75;;;;;;;20.37;100.00;94632.84;5051116;28;20209;-77
2022/09/10 03:10:17;;;;;;;21.33;11.48;;;;;;;20.27;100.00;94632.19;5051531;28;20209;-77
2022/09/10 03:12:46;;;;;;;18.38;11.50;;;;;;;20.25;100.00;94632.47;5050138;28;20210;-77
2022/09/10 03:15:13;;;;;;;17.23;11.00;;;;;;;20.33;100.00;94625.78;5049989;28;20577;-77
2022/09/10 03:17:40;;;;;;;15.52;10.88;;;;;;;20.36;100.00;94627.88;5049566;28;20260;-78
2022/09/10 03:20:08;;;;;;;18.63;11.63;;;;;;;20.32;100.00;94629.47;5050325;28;20317;-77
2022/09/10 03:22:35;;;;;;;20.70;11.20;;;;;;;20.38;100.00;94629.16;5050891;28;20962;-77
2022/09/10 03:25:03;;;;;;;16.27;10.98;;;;;;;20.41;100.00;94619.09;5050711;28;20220;-76
2022/09/10 03:27:30;;;;;;;18.50;11.57;;;;;;;20.37;100.00;94622.28;5049724;28;20233;-76
2022/09/10 03:29:57;;;;;;;14.90;10.63;;;;;;;20.42;100.00;94625.97;5049898;28;20210;-76
2022/09/10 03:32:24;;;;;;;18.48;10.98;;;;;;;20.40;100.00;94614.91;5050329;28;20206;-76
2022/09/10 03:34:51;;;;;;;13.50;10.00;;;;;;;20.43;100.00;94607.22;5049548;28;20202;-76
2022/09/10 03:37:17;;;;;;;17.95;11.05;;;;;;;20.48;100.00;94607.16;5050106;28;20205;-76
2022/09/10 03:39:44;;;;;;;15.63;10.82;;;;;;;20.50;100.00;94615.56;5050165;28;20225;-75
2022/09/10 03:42:13;;;;;;;16.75;11.13;;;;;;;20.51;100.00;94613.72;5050294;28;20205;-75
2022/09/10 03:44:39;;;;;;;16.48;10.38;;;;;;;20.48;100.00;94612.44;5050346;28;20206;-75
2022/09/10 03:47:06;;;;;;;18.40;11.27;;;;;;;20.50;100.00;94601.59;5050314;28;20217;-75
2022/09/10 03:49:33;;;;;;;19.67;11.50;;;;;;;20.50;100.00;94604.22;5049905;28;20202;-75
2022/09/10 03:52:01;;;;;;;19.60;11.25;;;;;;;20.49;100.00;94610.59;5049526;28;20209;-75
2022/09/10 03:54:28;;;;;;;19.92;11.25;;;;;;;20.51;100.00;94601.31;5049039;28;20202;-75
2022/09/10 03:56:55;;;;;;;19.45;10.50;;;;;;;20.51;100.00;94600.53;5049495;28;20213;-75
2022/09/10 03:59:23;;;;;;;21.20;11.48;;;;;;;20.50;100.00;94593.66;5049374;28;20241;-75
2022/09/10 04:01:50;;;;;;;21.77;11.63;;;;;;;20.53;100.00;94601.81;5049147;28;20615;-75
2022/09/10 04:04:16;;;;;;;19.63;11.70;;;;;;;20.58;100.00;94598.31;5050387;28;20209;-74
2022/09/10 04:06:44;;;;;;;16.63;11.52;;;;;;;20.58;100.00;94593.03;5050149;28;20198;-75
2022/09/10 04:09:11;;;;;;;15.90;11.20;;;;;;;20.62;100.00;94601.97;5049636;28;20209;-76
2022/09/10 04:11:38;;;;;;;21.25;11.10;;;;;;;20.61;100.00;94600.41;5050426;28;20237;-75
2022/09/10 04:14:06;;;;;;;21.95;11.82;;;;;;;20.62;100.00;94602.78;5050079;28;20202;-75
2022/09/10 04:16:34;;;;;;;19.05;11.57;;;;;;;20.53;100.00;94601.03;5049530;28;20769;-74
2022/09/10 04:19:01;;;;;;;15.57;11.00;;;;;;;20.48;100.00;94616.94;5049861;28;20217;-75
2022/09/10 04:21:28;;;;;;;23.83;11.63;;;;;;;20.48;100.00;94612.44;5049846;28;20229;-75
2022/09/10 04:23:55;;;;;;;19.52;11.75;;;;;;;20.52;100.00;94633.81;5049596;28;20209;-75
2022/09/10 04:26:22;;;;;;;18.85;12.05;;;;;;;20.52;100.00;94633.81;5050119;28;20677;-76
2022/09/10 04:28:49;;;;;;;19.65;12.13;;;;;;;20.51;100.00;94640.94;5049438;28;20202;-75
2022/09/10 04:31:16;;;;;;;21.38;12.80;;;;;;;20.52;100.00;94639.84;5049473;28;20206;-75
2022/09/10 04:33:44;;;;;;;23.65;12.57;;;;;;;20.54;100.00;94636.94;5049708;28;20213;-75
2022/09/10 04:36:13;;;;;;;28.95;12.63;;;;;;;20.55;100.00;94631.34;5049118;28;20206;-76
2022/09/10 04:38:40;;;;;;;26.50;12.68;;;;;;;20.58;100.00;94627.38;5049218;28;20198;-76
2022/09/10 04:41:07;;;;;;;21.92;12.32;;;;;;;20.43;100.00;94625.69;5049976;28;20292;-76
2022/09/10 04:43:34;;;;;;;28.40;13.02;;;;;;;20.40;100.00;94615.69;5049401;28;20209;-76
2022/09/10 04:46:01;;;;;;;24.83;13.10;;;;;;;20.44;100.00;94615.91;5049751;28;20217;-76
2022/09/10 04:48:28;;;;;;;23.77;13.02;;;;;;;20.45;100.00;94607.72;5049784;28;20213;-77
2022/09/10 04:50:56;;;;;;;28.30;13.13;;;;;;;20.46;100.00;94595.31;5048567;28;20217;-77
2022/09/10 04:53:23;;;;;;;24.30;12.80;;;;;;;20.42;100.00;94591.63;5049595;28;20214;-76
2022/09/10 04:55:51;;;;;;;25.20;12.63;;;;;;;20.49;100.00;94600.03;5049553;28;21159;-76
2022/09/10 04:58:18;;;;;;;23.55;13.90;;;;;;;20.52;100.00;94594.19;5044712;28;20194;-76
2022/09/10 05:00:45;;;;;;;26.02;13.40;;;;;;;20.51;100.00;94589.97;5047747;28;20218;-75
2022/09/10 05:03:13;;;;;;;21.13;12.60;;;;;;;20.51;100.00;94589.97;5052862;28;20229;-75
2022/09/10 05:05:41;;;;;;;17.67;12.05;;;;;;;20.54;100.00;94605.25;5052867;28;20242;-75
2022/09/10 05:08:09;;;;;;;17.08;12.50;;;;;;;20.56;100.00;94603.91;5053665;28;20206;-75
2022/09/10 05:10:37;;;;;;;20.98;12.15;;;;;;;20.59;100.00;94607.81;5052688;28;20202;-75
2022/09/10 05:13:04;;;;;;;21.45;12.57;;;;;;;20.60;100.00;94610.19;5052999;28;20210;-75
2022/09/10 05:15:31;;;;;;;18.95;12.82;;;;;;;20.62;100.00;94620.47;5052812;28;20206;-75
2022/09/10 05:17:58;;;;;;;23.60;12.32;;;;;;;20.62;100.00;94633.69;5053206;28;20290;-75
2022/09/10 05:20:26;;;;;;;20.65;13.13;;;;;;;20.54;100.00;94621.88;5053263;28;20591;-75
2022/09/10 05:22:53;;;;;;;19.75;12.80;;;;;;;20.55;100.00;94630.59;5052689;28;20578;-75
2022/09/10 05:25:21;;;;;;;18.63;12.63;;;;;;;20.57;100.00;94631.88;5052707;28;20210;-76
2022/09/10 05:27:50;;;;;;;20.63;12.60;;;;;;;20.60;100.00;94625.25;5053007;28;20202;-73
2022/09/10 05:30:17;;;;;;;22.17;13.27;;;;;;;20.60;100.00;94635.81;5052828;28;20202;-73
2022/09/10 05:32:44;;;;;;;26.65;13.68;;;;;;;20.64;100.00;94636.81;5052132;28;20194;-74
2022/09/10 05:35:11;;;;;;;19.58;12.52;;;;;;;20.65;100.00;94635.75;5052940;28;20198;-74
2022/09/10 05:37:38;;;;;;;18.95;12.57;;;;;;;20.69;100.00;94632.25;5053027;28;20206;-75
2022/09/10 05:40:06;;;;;;;23.38;13.00;;;;;;;20.74;100.00;94626.94;5051921;28;20709;-74
2022/09/10 05:42:35;;;;;;;20.10;13.82;;;;;;;20.71;100.00;94622.22;5052585;28;20194;-74
2022/09/10 05:45:02;;;;;;;18.58;13.27;;;;;;;20.77;100.00;94620.31;5052281;28;20214;-74
2022/09/10 05:47:29;;;;;;;19.25;12.88;;;;;;;20.79;100.00;94621.59;5055849;28;20198;-78
2022/09/10 05:49:56;;;;;;;22.67;13.27;;;;;;;20.87;100.00;94622.81;5052702;28;20198;-74
2022/09/10 05:52:23;;;;;;;20.88;12.07;;;;;;;20.94;100.00;94621.41;5052502;28;20213;-73
2022/09/10 05:54:50;;;;;;;21.73;13.70;;;;;;;21.01;100.00;94618.41;5051904;28;20289;-74
2022/09/10 05:57:17;;;;;;;23.73;13.30;;;;;;;21.06;100.00;94622.88;5052360;28;20209;-73
2022/09/10 05:59:45;;;;;;;18.23;12.10;;;;;;;21.14;100.00;94628.34;5051770;28;20213;-73
2022/09/10 06:02:16;;;;;;;21.35;12.50;;;;;;;21.17;100.00;94630.41;5052188;28;20214;-75
2022/09/10 06:04:43;;;;;;;22.83;12.55;;;;;;;21.25;100.00;94621.06;5052339;28;20202;-73
2022/09/10 06:07:10;;;;;;;24.80;13.10;;;;;;;21.30;100.00;94621.78;5052305;28;20206;-74
2022/09/10 06:09:37;;;;;;;20.17;13.13;;;;;;;21.34;100.00;94617.50;5046657;28;20201;-74
2022/09/10 06:12:06;;;;;;;20.35;13.32;;;;;;;21.45;100.00;94626.06;5051697;28;20205;-71
2022/09/10 06:14:33;;;;;;;20.77;12.65;;;;;;;21.44;100.00;94635.84;5050855;28;20234;-74
2022/09/10 06:17:01;;;;;;;18.70;13.05;;;;;;;21.44;99.53;94638.50;5049530;28;20320;-75
2022/09/10 06:19:28;;;;;;;25.70;12.32;;;;;;;21.46;98.99;94625.00;5051184;28;20209;-77
2022/09/10 06:21:55;;;;;;;20.50;13.52;;;;;;;21.50;99.50;94623.34;5052401;28;20251;-75
2022/09/10 06:24:23;;;;;;;21.35;13.38;;;;;;;21.51;99.62;94624.91;5052256;28;20202;-76
2022/09/10 06:26:50;;;;;;;23.65;13.40;;;;;;;21.57;99.30;94620.34;5051659;28;20233;-74
2022/09/10 06:29:18;;;;;;;21.83;13.00;;;;;;;21.61;98.92;94624.00;5051835;28;20206;-74
2022/09/10 06:31:46;;;;;;;18.90;12.07;;;;;;;21.62;97.00;94626.34;5051879;28;20288;-74
2022/09/10 06:34:17;;;;;;;23.23;12.65;;;;;;;21.65;96.35;94628.41;5052037;28;20217;-73
2022/09/10 06:36:46;;;;;;;17.83;12.00;;;;;;;21.66;95.95;94632.66;5050749;28;20209;-74
2022/09/10 06:39:13;;;;;;;23.65;12.80;;;;;;;21.72;94.99;94630.72;5051196;28;20194;-73
2022/09/10 06:41:41;;;;;;;18.25;11.88;;;;;;;21.73;94.74;94637.59;5051092;28;20226;-73
2022/09/10 06:44:08;;;;;;;19.33;12.57;;;;;;;21.73;94.29;94635.69;5051646;28;20725;-73
2022/09/10 06:46:36;;;;;;;18.00;12.40;;;;;;;21.76;93.84;94621.91;5051519;28;20210;-73
2022/09/10 06:49:03;;;;;;;18.63;11.23;;;;;;;21.78;93.98;94626.91;5051634;28;20237;-73
2022/09/10 06:51:32;;;;;;;16.65;11.43;;;;;;;21.77;94.31;94623.47;5051580;28;20202;-74
2022/09/10 06:53:59;;;;;;;22.95;13.55;;;;;;;21.79;94.28;94623.19;5051534;28;20234;-73
2022/09/10 06:56:26;;;;;;;21.45;13.80;;;;;;;21.72;94.66;94620.13;5051492;28;20216;-73
2022/09/10 06:58:54;;;;;;;25.45;13.50;;;;;;;21.72;94.82;94618.28;5051188;28;20206;-73
2022/09/10 07:01:22;;;;;;;21.30;13.20;;;;;;;21.68;94.96;94617.25;5051265;28;20603;-73
2022/09/10 07:03:55;;;;;;;27.33;13.80;;;;;;;21.77;94.60;94620.84;5051404;28;20229;-73
2022/09/10 07:06:21;;;;;;;21.85;15.48;;;;;;;21.74;95.38;94610.81;5050878;28;20297;-73
2022/09/10 07:08:54;;;;;;;26.40;15.48;;;;;;;21.78;95.04;94617.13;5051193;28;20206;-73
2022/09/10 07:11:21;;;;;;;20.75;15.48;;;;;;;21.86;95.21;94620.97;5050908;28;20205;-74
2022/09/10 07:13:50;;;;;;;29.00;18.58;;;;;;;21.84;95.02;94613.31;5050736;28;20205;-74
2022/09/10 07:16:18;;;;;;;23.00;15.55;;;;;;;21.84;94.34;94621.25;5050370;28;20233;-74
2022/09/10 07:18:48;;;;;;;23.80;16.35;;;;;;;21.90;94.26;94616.72;5050424;28;20287;-76
2022/09/10 07:21:15;;;;;;;24.77;15.68;;;;;;;;;;5050756;28;20593;-74
2022/09/10 07:23:42;;;;;;;27.55;14.25;;;;;;;22.04;94.38;94622.81;5050973;28;20198;-71
2022/09/10 07:26:13;;;;;;;23.73;14.00;;;;;;;22.14;93.26;94616.56;5050273;28;20665;-72
2022/09/10 07:28:41;;;;;;;19.35;14.48;;;;;;;22.09;93.32;94616.66;5050694;28;20202;-72
2022/09/10 07:31:14;;;;;;;21.77;13.45;;;;;;;22.14;92.34;94617.34;5050565;28;20229;-73
2022/09/10 07:33:41;;;;;;;21.50;14.13;;;;;;;22.13;93.26;94618.44;5050243;28;20247;-72
2022/09/10 07:36:08;;;;;;;22.27;13.65;;;;;;;22.20;92.34;94615.41;5050915;28;20218;-72
2022/09/10 07:38:36;;;;;;;22.52;14.10;;;;;;;22.29;91.13;94619.75;5046226;28;20194;-72
2022/09/10 07:41:03;;;;;;;19.00;13.57;;;;;;;22.36;91.09;94616.72;5048689;28;20233;-72
2022/09/10 07:43:31;;;;;;;20.88;14.07;;;;;;;22.40;91.55;94620.34;5050503;28;20197;-73
2022/09/10 07:45:58;;;;;;;19.60;13.85;;;;;;;22.45;91.40;94621.03;5050074;28;20213;-71
2022/09/10 07:48:26;;;;;;;21.88;13.70;;;;;;;22.56;90.77;94630.41;5050499;28;20206;-72
2022/09/10 07:50:52;;;;;;;23.27;14.25;;;;;;;22.67;90.09;94627.56;5050588;28;20293;-72
2022/09/10 07:53:19;;;;;;;17.30;13.20;;;;;;;22.82;90.06;94617.47;5050555;28;20202;-72
2022/09/10 07:55:46;;;;;;;17.23;11.80;;;;;;;22.97;89.53;94625.09;5050389;28;20202;-72
2022/09/10 07:58:13;;;;;;;22.20;12.77;;;;;;;23.08;88.51;94634.44;5050054;28;20210;-72
2022/09/10 08:00:41;;;;;;;18.77;13.75;;;;;;;23.17;87.97;94631.88;5046052;28;20218;-72
2022/09/10 08:03:11;;;;;;;21.92;13.52;;;;;;;23.29;86.89;94632.16;5041282;28;20194;-75
2022/09/10 08:05:38;;;;;;;19.60;11.52;;;;;;;23.37;87.23;94626.16;5047309;28;20246;-76
2022/09/10 08:08:05;;;;;;;21.25;13.38;;;;;;;23.42;88.16;94620.75;5050135;28;20206;-75
2022/09/10 08:10:31;;;;;;;22.88;14.80;;;;;;;23.45;85.68;94635.31;5050245;28;20671;-75
2022/09/10 08:12:58;;;;;;;22.45;14.00;;;;;;;23.48;84.50;94635.50;5049925;28;20597;-76
2022/09/10 08:15:25;;;;;;;23.02;13.70;;;;;;;23.52;84.04;94631.16;5050133;28;20208;-75
2022/09/10 08:17:54;;;;;;;20.70;14.15;;;;;;;23.53;84.12;94630.06;5054889;28;20209;-76
2022/09/10 08:20:25;;;;;;;23.63;14.15;;;;;;;23.58;83.76;94624.63;5050508;28;20233;-74
2022/09/10 08:22:52;;;;;;;18.17;12.50;;;;;;;23.64;83.75;94612.03;5050092;28;20329;-74
2022/09/10 08:25:20;;;;;;;11.75;10.15;;;;;;;23.83;86.50;94615.31;5049639;28;20244;-76
2022/09/10 08:27:47;;;;;;;12.13;9.48;;;;;;;24.13;86.17;94609.31;5057202;28;20263;-72
2022/09/10 08:30:14;;;;;;;17.10;11.82;;;;;;;24.31;82.97;94604.88;5057674;28;20687;-73
2022/09/10 08:32:41;;;;;;;21.60;9.95;;;;;;;24.51;83.83;94601.69;5054757;28;20217;-77
2022/09/10 08:35:13;;;;;;;17.85;10.45;;;;;;;24.66;81.72;94603.16;5057540;28;20194;-76
2022/09/10 08:37:40;;;;;;;24.20;13.38;;;;;;;24.76;80.73;94606.31;5056912;28;20280;-76
2022/09/10 08:40:10;;;;;;;24.15;12.95;;;;;;;24.86;80.50;94617.81;5062208;28;20256;-75
2022/09/10 08:42:41;;;;;;;21.35;12.60;;;;;;;24.94;79.22;94607.19;5061854;28;20205;-76
2022/09/10 08:45:13;;;;;;;18.23;12.52;;;;;;;25.03;79.49;94610.66;5060633;28;20224;-76
2022/09/10 08:47:52;;;;;;;25.00;13.05;;;;;;;25.14;78.20;94616.47;5058840;28;20193;-77
2022/09/10 08:50:26;;;;;;;17.00;12.35;;;;;;;25.19;78.01;94608.38;5062105;28;20198;-83
2022/09/10 08:52:57;;;;;;;20.92;11.70;;;;;;;25.28;79.08;94614.50;5055085;28;20197;-76
2022/09/10 08:55:30;;;;;;;20.40;11.93;;;;;;;25.32;79.47;94610.09;5064458;28;20961;-75
2022/09/10 08:58:00;;;;;;;18.42;11.88;;;;;;;25.39;80.79;94607.78;5059984;28;20256;-75
2022/09/10 09:00:31;;;;;;;23.92;11.52;;;;;;;25.50;79.08;94611.72;5064364;28;20190;-77
2022/09/10 09:03:04;;;;;;;16.55;10.55;;;;;;;25.62;78.49;94609.22;5050784;28;20238;-78
2022/09/10 09:05:43;;;;;;;19.63;11.60;;;;;;;25.69;77.86;94611.41;5062610;28;20246;-77
2022/09/10 09:08:12;;;;;;;24.38;12.35;;;;;;;25.70;75.92;94612.97;5059095;28;20221;-77
2022/09/10 09:10:46;;;;;;;20.63;13.38;;;;;;;25.71;75.40;94602.03;5059747;28;20205;-78
2022/09/10 09:14:01;;;;;;;16.35;11.90;;;;;;;25.65;75.74;94597.16;5061048;28;20204;-77
2022/09/10 09:16:40;;;;;;;18.95;11.27;;;;;;;25.64;76.11;94582.28;5037512;28;20224;-77
2022/09/10 09:19:21;;;;;;;17.15;9.52;;;;;;;25.81;76.87;94587.59;5058352;28;20186;-76
2022/09/10 09:21:53;;;;;;;14.55;10.88;;;;;;;25.99;75.50;94565.16;5053299;28;20217;-77
2022/09/10 09:24:28;;;;;;;15.52;10.05;;;;;;;26.11;75.31;94575.97;5053991;28;20221;-81
2022/09/10 09:27:02;;;;;;;23.00;11.25;;;;;;;26.15;73.57;94570.78;5052782;28;20683;-77
2022/09/10 09:29:34;;;;;;;22.65;12.32;;;;;;;26.06;73.02;94562.03;5053352;28;20198;-78
2022/09/10 09:32:04;;;;;;;20.08;10.68;;;;;;;26.02;72.64;94558.41;5052708;28;20210;-78
2022/09/10 09:34:36;;;;;;;17.50;10.68;;;;;;;26.00;72.13;94560.63;5053004;28;20205;-76
2022/09/10 09:37:11;;;;;;;12.05;7.90;;;;;;;26.13;73.91;94549.78;5053370;28;20279;-76
2022/09/10 09:39:45;;;;;;;16.02;9.40;;;;;;;26.33;75.36;94543.78;5052918;28;20201;-79
2022/09/10 09:42:19;;;;;;;14.07;9.45;;;;;;;26.58;74.21;94544.00;5053063;28;20206;-79
2022/09/10 09:44:51;;;;;;;19.40;11.05;;;;;;;26.96;72.21;94540.22;5052839;28;20236;-78
2022/09/10 09:47:18;;;;;;;15.50;9.63;;;;;;;27.41;69.80;94535.06;5052913;28;20626;-74
2022/09/10 09:49:45;;;;;;;23.73;12.32;;;;;;;27.62;68.35;94534.28;5052622;28;20290;-76
2022/09/10 09:52:21;;;;;;;354.23;147.50;;;;;;;27.82;66.36;94536.13;5052234;28;20198;-76
2022/09/10 09:54:51;;;;;;;30.83;16.27;;;;;;;27.97;66.55;94532.81;5052566;28;20194;-76
2022/09/10 09:57:19;;;;;;;23.58;13.32;;;;;;;28.32;66.04;94527.91;5052611;28;20198;-75
2022/09/10 09:59:48;;;;;;;19.77;12.68;;;;;;;28.68;64.87;94528.78;5052485;28;20738;-76
2022/09/10 10:02:18;;;;;;;21.65;12.05;;;;;;;28.96;63.80;94526.19;5052150;28;20327;-75
2022/09/10 10:05:03;;;;;;;18.30;10.55;;;;;;;29.36;62.96;94528.94;5052377;28;20241;-77
2022/09/10 10:07:35;;;;;;;17.45;11.80;;;;;;;29.61;60.68;94518.94;5052728;28;20206;-77
2022/09/10 10:10:03;;;;;;;23.08;11.25;;;;;;;29.88;59.55;94514.69;5052550;28;20234;-76
2022/09/10 10:12:31;;;;;;;21.50;11.75;;;;;;;30.07;57.71;94507.53;5052413;28;20198;-76
2022/09/10 10:14:59;;;;;;;15.75;9.27;;;;;;;30.39;58.29;94504.94;5051964;28;20198;-76
2022/09/10 10:17:36;;;;;;;13.05;9.07;;;;;;;30.52;57.19;94499.13;5051873;28;20238;-76
2022/09/10 10:20:11;;;;;;;19.90;9.88;;;;;;;30.61;56.45;94493.56;5052363;28;20201;-76
2022/09/10 10:22:40;;;;;;;18.05;9.93;;;;;;;30.96;56.12;94496.31;5052284;28;20226;-77
2022/09/10 10:25:37;;;;;;;15.82;8.77;;;;;;;31.03;54.85;94499.16;5051812;28;20210;-76
2022/09/10 10:28:12;;;;;;;11.73;8.57;;;;;;;31.19;54.67;94483.78;5052274;28;20228;-76
2022/09/10 10:30:40;;;;;;;11.57;8.38;;;;;;;31.23;54.29;94481.94;5051986;28;20201;-76
2022/09/10 10:33:16;;;;;;;14.23;8.45;;;;;;;31.15;54.67;94466.78;5051992;28;20623;-76
2022/09/10 10:35:48;;;;;;;13.05;9.15;;;;;;;31.08;54.97;94466.66;5052514;28;20259;-76
2022/09/10 10:38:34;;;;;;;15.18;8.95;;;;;;;31.37;53.88;94474.94;5051703;28;20719;-76
2022/09/10 10:41:33;;;;;;;13.20;9.40;;;;;;;31.45;53.56;94482.03;5051553;28;20626;-77
2022/09/10 10:44:38;;;;;;;17.23;8.82;;;;;;;31.38;53.38;94481.09;5046550;28;20213;-76
2022/09/10 10:47:27;;;;;;;13.23;8.55;;;;;;;31.46;53.27;94478.19;5047266;28;20205;-72
2022/09/10 10:50:03;;;;;;;11.57;8.40;;;;;;;31.26;53.69;94473.16;5051145;28;20212;-72
2022/09/10 10:52:40;;;;;;;11.18;7.88;;;;;;;30.96;54.40;94472.94;5050195;28;20217;-73
2022/09/10 10:55:17;;;;;;;15.80;8.80;;;;;;;30.74;54.75;94470.84;5051094;28;20193;-73
2022/09/10 10:58:08;;;;;;;14.27;8.45;;;;;;;30.28;55.63;94464.38;5051068;28;20193;-72
2022/09/10 11:00:42;;;;;;;19.73;9.55;;;;;;;29.93;56.61;94458.16;5050768;28;20638;-72
2022/09/10 11:03:14;;;;;;;18.10;9.63;;;;;;;29.54;57.06;94460.56;5050779;28;20214;-72
2022/09/10 11:05:45;;;;;;;15.75;8.70;;;;;;;29.24;57.92;94459.31;5051353;28;20291;-73
2022/09/10 11:08:18;;;;;;;13.43;8.82;;;;;;;28.82;59.56;94466.88;5051246;28;20300;-75
2022/09/10 11:10:50;;;;;;;15.63;9.93;;;;;;;28.63;60.09;94488.03;5051127;28;20573;-72
2022/09/10 11:13:21;;;;;;;23.40;9.85;;;;;;;28.13;65.63;94501.72;5050541;28;20194;-73
2022/09/10 11:15:54;;;;;;;25.23;10.10;;;;;;;27.67;75.22;94516.16;5050771;28;20629;-73
2022/09/10 11:18:28;;;;;;;22.48;8.82;;;;;;;26.17;83.14;94537.41;5050839;28;20198;-72
2022/09/10 11:21:01;;;;;;;16.10;7.07;;;;;;;25.39;82.97;94557.19;5050863;28;20181;-71
2022/09/10 11:23:32;;;;;;;14.07;6.13;;;;;;;24.37;82.28;94558.47;5051107;28;20217;-71
2022/09/10 11:26:06;;;;;;;19.75;6.50;;;;;;;23.87;86.01;94547.25;5046775;28;20200;-73
2022/09/10 11:28:38;;;;;;;14.50;7.07;;;;;;;23.79;87.31;94565.78;5046770;28;20585;-71